sensor_id;sensor_type;location;lat;lon;timestamp;pressure;altitude;pressure_sealevel;temperature;humidity
63204;BME280;49297;43.210;27.914;2023-01-25T00:00:28;102834.78;;;2.57;61.48
63204;BME280;49297;43.210;27.914;2023-01-25T00:02:54;102828.88;;;2.47;61.37
63204;BME280;49297;43.210;27.914;2023-01-25T00:05:20;102823.84;;;2.38;61.94
63204;BME280;49297;43.210;27.914;2023-01-25T00:07:46;102831.78;;;2.33;61.88
63204;BME280;49297;43.210;27.914;2023-01-25T00:10:12;102828.38;;;2.29;61.79
63204;BME280;49297;43.210;27.914;2023-01-25T00:12:38;102830.88;;;2.36;61.73
63204;BME280;49297;43.210;27.914;2023-01-25T00:15:04;102825.66;;;2.36;61.72
63204;BME280;49297;43.210;27.914;2023-01-25T00:17:30;102823.00;;;2.37;62.27
63204;BME280;49297;43.210;27.914;2023-01-25T00:19:55;102815.09;;;2.39;61.52
63204;BME280;49297;43.210;27.914;2023-01-25T00:22:21;102802.88;;;2.41;61.05
63204;BME280;49297;43.210;27.914;2023-01-25T00:24:47;102803.66;;;2.44;60.88
63204;BME280;49297;43.210;27.914;2023-01-25T00:27:13;102796.63;;;2.48;61.01
63204;BME280;49297;43.210;27.914;2023-01-25T00:29:38;102802.63;;;2.52;60.51
63204;BME280;49297;43.210;27.914;2023-01-25T00:34:47;102799.19;;;2.50;59.86
63204;BME280;49297;43.210;27.914;2023-01-25T00:37:18;102786.91;;;2.53;59.64
63204;BME280;49297;43.210;27.914;2023-01-25T00:39:48;102792.19;;;2.52;59.55
63204;BME280;49297;43.210;27.914;2023-01-25T00:42:16;102786.06;;;2.51;60.09
63204;BME280;49297;43.210;27.914;2023-01-25T00:44:42;102792.19;;;2.52;59.42
63204;BME280;49297;43.210;27.914;2023-01-25T00:47:09;102787.03;;;2.47;59.22
63204;BME280;49297;43.210;27.914;2023-01-25T00:49:36;102790.47;;;2.49;58.92
63204;BME280;49297;43.210;27.914;2023-01-25T00:52:02;102795.75;;;2.46;58.32
63204;BME280;49297;43.210;27.914;2023-01-25T00:54:28;102794.09;;;2.43;57.82
63204;BME280;49297;43.210;27.914;2023-01-25T00:56:53;102793.28;;;2.40;58.25
63204;BME280;49297;43.210;27.914;2023-01-25T00:59:21;102791.50;;;2.42;58.12
63204;BME280;49297;43.210;27.914;2023-01-25T01:01:48;102788.81;;;2.46;58.29
63204;BME280;49297;43.210;27.914;2023-01-25T01:04:14;102795.69;;;2.49;57.91
63204;BME280;49297;43.210;27.914;2023-01-25T01:06:41;102781.72;;;2.52;57.72
63204;BME280;49297;43.210;27.914;2023-01-25T01:09:12;102779.06;;;2.53;57.57
63204;BME280;49297;43.210;27.914;2023-01-25T01:11:38;102785.13;;;2.55;57.33
63204;BME280;49297;43.210;27.914;2023-01-25T01:14:06;102783.34;;;2.56;56.34
63204;BME280;49297;43.210;27.914;2023-01-25T01:16:32;102780.94;;;2.48;55.95
63204;BME280;49297;43.210;27.914;2023-01-25T01:18:58;102779.50;;;2.33;55.99
63204;BME280;49297;43.210;27.914;2023-01-25T01:21:25;102781.31;;;2.29;55.94
63204;BME280;49297;43.210;27.914;2023-01-25T01:23:53;102774.38;;;2.28;56.19
63204;BME280;49297;43.210;27.914;2023-01-25T01:26:20;102774.34;;;2.30;55.92
63204;BME280;49297;43.210;27.914;2023-01-25T01:28:46;102773.44;;;2.31;56.28
63204;BME280;49297;43.210;27.914;2023-01-25T01:31:17;102771.00;;;2.23;55.70
63204;BME280;49297;43.210;27.914;2023-01-25T01:33:48;102764.22;;;2.15;56.46
63204;BME280;49297;43.210;27.914;2023-01-25T01:36:17;102775.59;;;2.12;56.21
63204;BME280;49297;43.210;27.914;2023-01-25T01:38:43;102767.88;;;2.07;57.01
63204;BME280;49297;43.210;27.914;2023-01-25T01:41:11;102767.13;;;2.01;56.84
63204;BME280;49297;43.210;27.914;2023-01-25T01:43:38;102766.44;;;1.93;57.12
63204;BME280;49297;43.210;27.914;2023-01-25T01:48:55;102751.66;;;1.90;57.49
63204;BME280;49297;43.210;27.914;2023-01-25T01:51:43;102759.66;;;1.84;58.04
63204;BME280;49297;43.210;27.914;2023-01-25T01:54:15;102757.13;;;1.79;58.23
63204;BME280;49297;43.210;27.914;2023-01-25T01:56:52;102754.50;;;1.79;58.13
63204;BME280;49297;43.210;27.914;2023-01-25T01:59:22;102757.06;;;1.82;58.53
63204;BME280;49297;43.210;27.914;2023-01-25T02:01:52;102756.97;;;1.85;58.47
63204;BME280;49297;43.210;27.914;2023-01-25T02:04:24;102752.59;;;1.89;58.33
63204;BME280;49297;43.210;27.914;2023-01-25T02:07:02;102750.66;;;1.97;58.41
63204;BME280;49297;43.210;27.914;2023-01-25T02:09:31;102754.78;;;2.07;58.59
63204;BME280;49297;43.210;27.914;2023-01-25T02:11:59;102747.72;;;2.13;58.39
63204;BME280;49297;43.210;27.914;2023-01-25T02:14:27;102745.00;;;2.16;58.23
63204;BME280;49297;43.210;27.914;2023-01-25T02:16:54;102741.44;;;2.21;58.37
63204;BME280;49297;43.210;27.914;2023-01-25T02:19:49;102751.75;;;2.26;58.59
63204;BME280;49297;43.210;27.914;2023-01-25T02:22:18;102742.09;;;2.29;58.40
63204;BME280;49297;43.210;27.914;2023-01-25T02:25:05;102741.22;;;2.31;57.40
63204;BME280;49297;43.210;27.914;2023-01-25T02:27:35;102736.97;;;2.26;57.88
63204;BME280;49297;43.210;27.914;2023-01-25T02:30:03;102735.13;;;2.30;58.23
63204;BME280;49297;43.210;27.914;2023-01-25T02:32:31;102731.63;;;2.31;57.82
63204;BME280;49297;43.210;27.914;2023-01-25T02:34:58;102729.19;;;2.23;57.71
63204;BME280;49297;43.210;27.914;2023-01-25T02:37:24;102740.69;;;2.15;58.31
63204;BME280;49297;43.210;27.914;2023-01-25T02:39:56;102731.22;;;2.11;58.06
63204;BME280;49297;43.210;27.914;2023-01-25T02:42:22;102729.44;;;2.13;58.13
63204;BME280;49297;43.210;27.914;2023-01-25T02:44:50;102728.66;;;2.07;58.24
63204;BME280;49297;43.210;27.914;2023-01-25T02:47:16;102734.22;;;1.90;58.67
63204;BME280;49297;43.210;27.914;2023-01-25T02:49:43;102727.59;;;1.76;58.42
63204;BME280;49297;43.210;27.914;2023-01-25T02:52:10;102731.28;;;1.64;59.48
63204;BME280;49297;43.210;27.914;2023-01-25T02:54:36;102739.34;;;1.53;59.97
63204;BME280;49297;43.210;27.914;2023-01-25T02:57:02;102729.81;;;1.52;60.12
63204;BME280;49297;43.210;27.914;2023-01-25T02:59:27;102741.06;;;1.54;60.32
63204;BME280;49297;43.210;27.914;2023-01-25T03:01:53;102740.31;;;1.49;60.32
63204;BME280;49297;43.210;27.914;2023-01-25T03:04:19;102728.97;;;1.50;60.12
63204;BME280;49297;43.210;27.914;2023-01-25T03:06:45;102734.13;;;1.53;60.44
63204;BME280;49297;43.210;27.914;2023-01-25T03:09:11;102726.25;;;1.55;59.92
63204;BME280;49297;43.210;27.914;2023-01-25T03:11:37;102734.78;;;1.64;59.63
63204;BME280;49297;43.210;27.914;2023-01-25T03:14:03;102732.09;;;1.67;59.87
63204;BME280;49297;43.210;27.914;2023-01-25T03:16:30;102735.44;;;1.74;59.37
63204;BME280;49297;43.210;27.914;2023-01-25T03:18:56;102734.66;;;1.70;59.23
63204;BME280;49297;43.210;27.914;2023-01-25T03:21:22;102734.78;;;1.64;59.51
63204;BME280;49297;43.210;27.914;2023-01-25T03:23:57;102740.09;;;1.60;59.61
63204;BME280;49297;43.210;27.914;2023-01-25T03:26:25;102735.81;;;1.57;60.07
63204;BME280;49297;43.210;27.914;2023-01-25T03:28:51;102747.25;;;1.50;60.47
63204;BME280;49297;43.210;27.914;2023-01-25T03:31:17;102743.88;;;1.45;60.37
63204;BME280;49297;43.210;27.914;2023-01-25T03:33:43;102748.31;;;1.40;61.13
63204;BME280;49297;43.210;27.914;2023-01-25T03:36:09;102739.69;;;1.36;61.30
63204;BME280;49297;43.210;27.914;2023-01-25T03:38:35;102736.13;;;1.40;61.53
63204;BME280;49297;43.210;27.914;2023-01-25T03:41:02;102737.78;;;1.44;62.15
63204;BME280;49297;43.210;27.914;2023-01-25T03:43:28;102735.25;;;1.40;62.34
63204;BME280;49297;43.210;27.914;2023-01-25T03:45:57;102734.41;;;1.39;61.94
63204;BME280;49297;43.210;27.914;2023-01-25T03:48:24;102725.78;;;1.36;62.50
63204;BME280;49297;43.210;27.914;2023-01-25T03:50:59;102729.22;;;1.38;62.47
63204;BME280;49297;43.210;27.914;2023-01-25T03:53:27;102730.88;;;1.42;62.51
63204;BME280;49297;43.210;27.914;2023-01-25T03:58:23;102726.44;;;1.45;62.37
63204;BME280;49297;43.210;27.914;2023-01-25T04:00:49;102727.38;;;1.43;62.38
63204;BME280;49297;43.210;27.914;2023-01-25T04:03:15;102721.25;;;1.44;62.53
63204;BME280;49297;43.210;27.914;2023-01-25T04:05:44;102717.66;;;1.49;62.98
63204;BME280;49297;43.210;27.914;2023-01-25T04:08:10;102723.00;;;1.45;62.97
63204;BME280;49297;43.210;27.914;2023-01-25T04:10:35;102722.91;;;1.48;62.67
63204;BME280;49297;43.210;27.914;2023-01-25T04:13:01;102722.91;;;1.48;63.08
63204;BME280;49297;43.210;27.914;2023-01-25T04:15:27;102725.41;;;1.54;62.80
63204;BME280;49297;43.210;27.914;2023-01-25T04:17:53;102729.69;;;1.58;63.37
63204;BME280;49297;43.210;27.914;2023-01-25T04:20:20;102724.44;;;1.58;62.97
63204;BME280;49297;43.210;27.914;2023-01-25T04:22:46;102727.94;;;1.59;63.14
63204;BME280;49297;43.210;27.914;2023-01-25T04:25:12;102731.66;;;1.47;63.71
63204;BME280;49297;43.210;27.914;2023-01-25T04:27:38;102732.59;;;1.43;63.91
63204;BME280;49297;43.210;27.914;2023-01-25T04:30:04;102726.50;;;1.42;64.80
63204;BME280;49297;43.210;27.914;2023-01-25T04:32:30;102727.47;;;1.37;64.77
63204;BME280;49297;43.210;27.914;2023-01-25T04:34:56;102730.94;;;1.37;65.14
63204;BME280;49297;43.210;27.914;2023-01-25T04:37:22;102723.06;;;1.40;65.73
63204;BME280;49297;43.210;27.914;2023-01-25T04:39:47;102723.00;;;1.43;65.44
63204;BME280;49297;43.210;27.914;2023-01-25T04:42:13;102727.31;;;1.46;65.90
63204;BME280;49297;43.210;27.914;2023-01-25T04:44:39;102714.16;;;1.50;65.59
63204;BME280;49297;43.210;27.914;2023-01-25T04:47:05;102717.56;;;1.56;65.38
63204;BME280;49297;43.210;27.914;2023-01-25T04:49:30;102719.31;;;1.55;65.33
63204;BME280;49297;43.210;27.914;2023-01-25T04:51:56;102721.09;;;1.51;65.37
63204;BME280;49297;43.210;27.914;2023-01-25T04:54:22;102722.88;;;1.49;65.58
63204;BME280;49297;43.210;27.914;2023-01-25T04:56:47;102722.06;;;1.47;65.90
63204;BME280;49297;43.210;27.914;2023-01-25T04:59:13;102727.22;;;1.50;65.37
63204;BME280;49297;43.210;27.914;2023-01-25T05:01:40;102714.03;;;1.57;65.83
63204;BME280;49297;43.210;27.914;2023-01-25T05:04:05;102717.38;;;1.63;65.89
63204;BME280;49297;43.210;27.914;2023-01-25T05:06:31;102718.09;;;1.71;65.96
63204;BME280;49297;43.210;27.914;2023-01-25T05:08:57;102718.03;;;1.75;65.28
63204;BME280;49297;43.210;27.914;2023-01-25T05:11:23;102721.53;;;1.74;65.36
63204;BME280;49297;43.210;27.914;2023-01-25T05:13:49;102723.31;;;1.73;65.86
63204;BME280;49297;43.210;27.914;2023-01-25T05:16:16;102719.78;;;1.74;65.83
63204;BME280;49297;43.210;27.914;2023-01-25T05:18:42;102717.16;;;1.74;66.35
63204;BME280;49297;43.210;27.914;2023-01-25T05:21:08;102717.19;;;1.73;66.10
63204;BME280;49297;43.210;27.914;2023-01-25T05:23:53;102715.47;;;1.73;66.90
63204;BME280;49297;43.210;27.914;2023-01-25T05:26:19;102715.47;;;1.73;66.18
63204;BME280;49297;43.210;27.914;2023-01-25T05:29:04;102715.47;;;1.73;66.85
63204;BME280;49297;43.210;27.914;2023-01-25T05:31:29;102714.59;;;1.73;66.48
63204;BME280;49297;43.210;27.914;2023-01-25T05:33:55;102705.06;;;1.71;66.40
63204;BME280;49297;43.210;27.914;2023-01-25T05:36:21;102719.84;;;1.71;67.15
63204;BME280;49297;43.210;27.914;2023-01-25T05:38:47;102711.03;;;1.77;66.84
63204;BME280;49297;43.210;27.914;2023-01-25T05:41:12;102704.97;;;1.75;66.53
63204;BME280;49297;43.210;27.914;2023-01-25T05:43:38;102704.06;;;1.77;67.23
63204;BME280;49297;43.210;27.914;2023-01-25T05:46:04;102702.28;;;1.78;66.96
63204;BME280;49297;43.210;27.914;2023-01-25T05:48:30;102705.63;;;1.84;66.49
63204;BME280;49297;43.210;27.914;2023-01-25T05:50:57;102704.78;;;1.84;66.84
63204;BME280;49297;43.210;27.914;2023-01-25T05:53:26;102703.84;;;1.86;67.26
63204;BME280;49297;43.210;27.914;2023-01-25T05:55:52;102701.22;;;1.88;66.57
63204;BME280;49297;43.210;27.914;2023-01-25T05:58:18;102700.28;;;1.90;67.54
63204;BME280;49297;43.210;27.914;2023-01-25T06:00:44;102700.22;;;1.94;66.79
63204;BME280;49297;43.210;27.914;2023-01-25T06:03:10;102697.50;;;2.00;67.47
63204;BME280;49297;43.210;27.914;2023-01-25T06:05:36;102704.41;;;2.01;67.61
63204;BME280;49297;43.210;27.914;2023-01-25T06:08:02;102695.66;;;2.03;67.23
63204;BME280;49297;43.210;27.914;2023-01-25T06:10:27;102707.00;;;2.02;67.80
63204;BME280;49297;43.210;27.914;2023-01-25T06:12:57;102695.56;;;2.06;67.90
63204;BME280;49297;43.210;27.914;2023-01-25T06:15:24;102688.56;;;2.08;67.58
63204;BME280;49297;43.210;27.914;2023-01-25T06:17:54;102691.13;;;2.10;67.40
63204;BME280;49297;43.210;27.914;2023-01-25T06:20:20;102693.84;;;2.07;67.89
63204;BME280;49297;43.210;27.914;2023-01-25T06:22:50;102698.16;;;2.08;68.13
63204;BME280;49297;43.210;27.914;2023-01-25T06:25:16;102692.88;;;2.11;68.05
63204;BME280;49297;43.210;27.914;2023-01-25T06:27:42;102695.41;;;2.14;68.13
63204;BME280;49297;43.210;27.914;2023-01-25T06:30:10;102678.81;;;2.15;68.32
63204;BME280;49297;43.210;27.914;2023-01-25T06:32:36;102683.03;;;2.22;68.11
63204;BME280;49297;43.210;27.914;2023-01-25T06:35:02;102679.50;;;2.25;68.00
63204;BME280;49297;43.210;27.914;2023-01-25T06:37:27;102677.69;;;2.27;68.09
63204;BME280;49297;43.210;27.914;2023-01-25T06:39:53;102678.53;;;2.27;68.45
63204;BME280;49297;43.210;27.914;2023-01-25T06:42:19;102674.13;;;2.29;68.06
63204;BME280;49297;43.210;27.914;2023-01-25T06:44:45;102667.09;;;2.32;68.17
63204;BME280;49297;43.210;27.914;2023-01-25T06:47:11;102661.09;;;2.28;68.35
63204;BME280;49297;43.210;27.914;2023-01-25T06:49:37;102665.47;;;2.27;68.88
63204;BME280;49297;43.210;27.914;2023-01-25T06:52:04;102676.91;;;2.23;68.94
63204;BME280;49297;43.210;27.914;2023-01-25T06:54:29;102682.97;;;2.24;68.43
63204;BME280;49297;43.210;27.914;2023-01-25T06:56:55;102669.09;;;2.22;69.18
63204;BME280;49297;43.210;27.914;2023-01-25T06:59:21;102664.75;;;2.21;69.33
63204;BME280;49297;43.210;27.914;2023-01-25T07:01:47;102651.59;;;2.25;69.29
63204;BME280;49297;43.210;27.914;2023-01-25T07:04:18;102656.78;;;2.27;69.94
63204;BME280;49297;43.210;27.914;2023-01-25T07:06:44;102660.19;;;2.31;69.63
63204;BME280;49297;43.210;27.914;2023-01-25T07:09:11;102657.56;;;2.31;69.46
63204;BME280;49297;43.210;27.914;2023-01-25T07:11:37;102663.56;;;2.36;70.40
63204;BME280;49297;43.210;27.914;2023-01-25T07:14:04;102652.94;;;2.42;70.15
63204;BME280;49297;43.210;27.914;2023-01-25T07:16:30;102652.03;;;2.43;70.15
63204;BME280;49297;43.210;27.914;2023-01-25T07:19:03;102666.84;;;2.42;69.83
63204;BME280;49297;43.210;27.914;2023-01-25T07:21:28;102665.16;;;2.41;69.45
63204;BME280;49297;43.210;27.914;2023-01-25T07:23:59;102666.06;;;2.39;70.05
63204;BME280;49297;43.210;27.914;2023-01-25T07:26:26;102658.19;;;2.40;69.88
63204;BME280;49297;43.210;27.914;2023-01-25T07:28:52;102658.91;;;2.47;69.19
63204;BME280;49297;43.210;27.914;2023-01-25T07:31:19;102659.75;;;2.47;69.28
63204;BME280;49297;43.210;27.914;2023-01-25T07:33:52;102653.59;;;2.50;69.19
63204;BME280;49297;43.210;27.914;2023-01-25T07:36:19;102653.56;;;2.52;69.33
63204;BME280;49297;43.210;27.914;2023-01-25T07:38:45;102653.59;;;2.50;69.13
63204;BME280;49297;43.210;27.914;2023-01-25T07:41:11;102654.34;;;2.55;68.68
63204;BME280;49297;43.210;27.914;2023-01-25T07:43:38;102651.72;;;2.57;68.72
63204;BME280;49297;43.210;27.914;2023-01-25T07:46:06;102662.94;;;2.60;68.70
63204;BME280;49297;43.210;27.914;2023-01-25T07:48:33;102658.63;;;2.58;67.84
63204;BME280;49297;43.210;27.914;2023-01-25T07:51:05;102660.47;;;2.54;68.59
63204;BME280;49297;43.210;27.914;2023-01-25T07:53:43;102669.13;;;2.56;68.64
63204;BME280;49297;43.210;27.914;2023-01-25T07:56:11;102677.94;;;2.54;68.05
63204;BME280;49297;43.210;27.914;2023-01-25T07:58:38;102678.69;;;2.59;68.54
63204;BME280;49297;43.210;27.914;2023-01-25T08:01:15;102669.81;;;2.64;67.73
63204;BME280;49297;43.210;27.914;2023-01-25T08:03:42;102683.88;;;2.60;67.80
63204;BME280;49297;43.210;27.914;2023-01-25T08:06:08;102684.59;;;2.65;68.07
63204;BME280;49297;43.210;27.914;2023-01-25T08:08:48;102694.84;;;2.75;67.82
63204;BME280;49297;43.210;27.914;2023-01-25T08:11:20;102695.53;;;2.81;66.89
63204;BME280;49297;43.210;27.914;2023-01-25T08:13:47;102700.59;;;2.89;67.65
63204;BME280;49297;43.210;27.914;2023-01-25T08:16:19;102696.03;;;2.96;67.01
63204;BME280;49297;43.210;27.914;2023-01-25T08:18:50;102703.81;;;2.99;67.02
63204;BME280;49297;43.210;27.914;2023-01-25T08:21:17;102704.13;;;2.86;66.76
63204;BME280;49297;43.210;27.914;2023-01-25T08:23:43;102706.69;;;2.88;66.25
63204;BME280;49297;43.210;27.914;2023-01-25T08:26:11;102710.94;;;2.92;66.94
63204;BME280;49297;43.210;27.914;2023-01-25T08:28:39;102707.41;;;2.95;66.53
63204;BME280;49297;43.210;27.914;2023-01-25T08:31:16;102711.66;;;2.99;66.53
63204;BME280;49297;43.210;27.914;2023-01-25T08:33:43;102709.81;;;3.02;66.25
63204;BME280;49297;43.210;27.914;2023-01-25T08:36:13;102711.41;;;3.08;66.23
63204;BME280;49297;43.210;27.914;2023-01-25T08:38:39;102713.19;;;3.08;65.73
63204;BME280;49297;43.210;27.914;2023-01-25T08:41:07;102701.84;;;3.07;66.25
63204;BME280;49297;43.210;27.914;2023-01-25T08:43:33;102704.31;;;3.13;66.30
63204;BME280;49297;43.210;27.914;2023-01-25T08:45:59;102707.81;;;3.14;65.80
63204;BME280;49297;43.210;27.914;2023-01-25T08:48:25;102695.41;;;3.19;65.98
63204;BME280;49297;43.210;27.914;2023-01-25T08:50:51;102699.59;;;3.26;65.31
63204;BME280;49297;43.210;27.914;2023-01-25T08:53:17;102701.25;;;3.30;65.12
63204;BME280;49297;43.210;27.914;2023-01-25T08:55:43;102693.34;;;3.32;65.06
63204;BME280;49297;43.210;27.914;2023-01-25T08:58:12;102688.88;;;3.35;65.37
63204;BME280;49297;43.210;27.914;2023-01-25T09:00:39;102689.66;;;3.39;65.17
63204;BME280;49297;43.210;27.914;2023-01-25T09:03:06;102680.16;;;3.35;64.80
63204;BME280;49297;43.210;27.914;2023-01-25T09:05:33;102687.19;;;3.33;64.75
63204;BME280;49297;43.210;27.914;2023-01-25T09:08:04;102684.59;;;3.31;64.78
63204;BME280;49297;43.210;27.914;2023-01-25T09:10:30;102684.47;;;3.37;65.45
63204;BME280;49297;43.210;27.914;2023-01-25T09:12:56;102680.88;;;3.40;64.95
63204;BME280;49297;43.210;27.914;2023-01-25T09:15:22;102672.81;;;3.48;64.87
63204;BME280;49297;43.210;27.914;2023-01-25T09:17:52;102686.84;;;3.45;64.64
63204;BME280;49297;43.210;27.914;2023-01-25T09:20:19;102672.28;;;3.35;64.10
63204;BME280;49297;43.210;27.914;2023-01-25T09:22:45;102673.16;;;3.35;64.52
63204;BME280;49297;43.210;27.914;2023-01-25T09:25:10;102668.50;;;3.45;65.32
63204;BME280;49297;43.210;27.914;2023-01-25T09:27:36;102660.50;;;3.51;65.60
63204;BME280;49297;43.210;27.914;2023-01-25T09:30:04;102662.03;;;3.58;64.74
63204;BME280;49297;43.210;27.914;2023-01-25T09:32:32;102659.19;;;3.66;65.49
63204;BME280;49297;43.210;27.914;2023-01-25T09:34:58;102655.38;;;3.76;64.81
63204;BME280;49297;43.210;27.914;2023-01-25T09:37:24;102656.13;;;3.81;64.43
63204;BME280;49297;43.210;27.914;2023-01-25T09:39:50;102648.81;;;3.91;64.49
63204;BME280;49297;43.210;27.914;2023-01-25T09:55:40;102635.59;;;4.23;63.53
63204;BME280;49297;43.210;27.914;2023-01-25T09:58:13;102631.91;;;4.28;63.02
63204;BME280;49297;43.210;27.914;2023-01-25T10:00:49;102621.25;;;4.33;62.29
63204;BME280;49297;43.210;27.914;2023-01-25T10:03:26;102612.38;;;4.12;62.64
63204;BME280;49297;43.210;27.914;2023-01-25T10:05:57;102627.13;;;4.14;63.07
63204;BME280;49297;43.210;27.914;2023-01-25T10:11:19;102616.16;;;4.30;62.70
63204;BME280;49297;43.210;27.914;2023-01-25T10:13:46;102613.22;;;4.39;62.52
63204;BME280;49297;43.210;27.914;2023-01-25T10:19:16;102605.78;;;4.25;62.69
63204;BME280;49297;43.210;27.914;2023-01-25T10:22:10;102611.78;;;4.29;62.37
63204;BME280;49297;43.210;27.914;2023-01-25T10:28:12;102596.91;;;4.29;62.57
63204;BME280;49297;43.210;27.914;2023-01-25T10:33:46;102594.09;;;4.35;62.35
63204;BME280;49297;43.210;27.914;2023-01-25T10:36:20;102598.28;;;4.41;62.32
63204;BME280;49297;43.210;27.914;2023-01-25T10:38:48;102596.09;;;4.27;61.91
63204;BME280;49297;43.210;27.914;2023-01-25T10:41:22;102590.81;;;4.29;62.16
63204;BME280;49297;43.210;27.914;2023-01-25T10:43:51;102588.91;;;4.34;62.35
63204;BME280;49297;43.210;27.914;2023-01-25T10:46:38;102581.34;;;4.25;62.00
63204;BME280;49297;43.210;27.914;2023-01-25T10:49:22;102581.31;;;4.26;62.65
63204;BME280;49297;43.210;27.914;2023-01-25T10:51:50;102580.22;;;4.32;62.64
63204;BME280;49297;43.210;27.914;2023-01-25T10:54:15;102566.84;;;4.39;62.64
63204;BME280;49297;43.210;27.914;2023-01-25T10:56:43;102561.50;;;4.43;62.57
63204;BME280;49297;43.210;27.914;2023-01-25T11:01:41;102558.78;;;4.46;62.33
63204;BME280;49297;43.210;27.914;2023-01-25T11:04:32;102551.28;;;4.35;62.19
63204;BME280;49297;43.210;27.914;2023-01-25T11:07:01;102544.31;;;4.34;62.44
63204;BME280;49297;43.210;27.914;2023-01-25T11:09:29;102538.59;;;4.23;62.46
63204;BME280;49297;43.210;27.914;2023-01-25T11:12:02;102537.63;;;4.25;62.62
63204;BME280;49297;43.210;27.914;2023-01-25T11:14:30;102536.63;;;4.28;62.75
63204;BME280;49297;43.210;27.914;2023-01-25T11:16:58;102527.09;;;4.27;62.92
63204;BME280;49297;43.210;27.914;2023-01-25T11:19:34;102524.66;;;4.20;62.71
63204;BME280;49297;43.210;27.914;2023-01-25T11:22:03;102523.97;;;4.15;62.77
63204;BME280;49297;43.210;27.914;2023-01-25T11:24:34;102525.94;;;4.09;62.79
63204;BME280;49297;43.210;27.914;2023-01-25T11:27:20;102522.38;;;4.10;63.64
63204;BME280;49297;43.210;27.914;2023-01-25T11:30:13;102525.88;;;4.10;63.44
63204;BME280;49297;43.210;27.914;2023-01-25T11:32:40;102505.75;;;4.11;63.20
63204;BME280;49297;43.210;27.914;2023-01-25T11:35:20;102512.00;;;4.08;63.78
63204;BME280;49297;43.210;27.914;2023-01-25T11:38:12;102499.16;;;3.99;63.97
63204;BME280;49297;43.210;27.914;2023-01-25T11:43:47;102493.91;;;3.99;64.34
63204;BME280;49297;43.210;27.914;2023-01-25T11:49:57;102490.91;;;3.85;64.50
63204;BME280;49297;43.210;27.914;2023-01-25T11:53:12;102482.25;;;3.83;64.33
63204;BME280;49297;43.210;27.914;2023-01-25T11:55:26;102489.22;;;3.84;65.30
63204;BME280;49297;43.210;27.914;2023-01-25T12:00:59;102492.28;;;3.70;66.07
63204;BME280;49297;43.210;27.914;2023-01-25T12:04:18;102478.41;;;3.66;67.27
63204;BME280;49297;43.210;27.914;2023-01-25T12:06:33;102473.47;;;3.57;67.60
63204;BME280;49297;43.210;27.914;2023-01-25T12:09:24;102475.13;;;3.59;67.22
63204;BME280;49297;43.210;27.914;2023-01-25T12:14:47;102474.28;;;3.59;68.00
63204;BME280;49297;43.210;27.914;2023-01-25T12:20:59;102458.56;;;3.59;68.13
63204;BME280;49297;43.210;27.914;2023-01-25T12:23:47;102453.25;;;3.62;68.91
63204;BME280;49297;43.210;27.914;2023-01-25T12:26:25;102463.50;;;3.68;69.04
63204;BME280;49297;43.210;27.914;2023-01-25T12:29:04;102461.72;;;3.69;68.76
63204;BME280;49297;43.210;27.914;2023-01-25T12:31:59;102465.16;;;3.71;68.30
63204;BME280;49297;43.210;27.914;2023-01-25T12:37:09;102465.06;;;3.74;67.99
63204;BME280;49297;43.210;27.914;2023-01-25T12:39:45;102464.25;;;3.72;68.25
63204;BME280;49297;43.210;27.914;2023-01-25T12:42:23;102456.34;;;3.73;68.26
63204;BME280;49297;43.210;27.914;2023-01-25T12:45:08;102467.00;;;3.67;68.67
63204;BME280;49297;43.210;27.914;2023-01-25T12:47:49;102470.66;;;3.63;68.83
63204;BME280;49297;43.210;27.914;2023-01-25T12:50:53;102482.16;;;3.59;68.42
63204;BME280;49297;43.210;27.914;2023-01-25T12:53:22;102486.75;;;3.51;67.54
63204;BME280;49297;43.210;27.914;2023-01-25T12:55:49;102484.69;;;3.34;67.77
63204;BME280;49297;43.210;27.914;2023-01-25T13:09:27;102469.59;;;3.14;68.94
63204;BME280;49297;43.210;27.914;2023-01-25T13:11:54;102459.81;;;3.19;68.20
63204;BME280;49297;43.210;27.914;2023-01-25T13:14:36;102459.66;;;3.25;68.12
63204;BME280;49297;43.210;27.914;2023-01-25T13:17:31;102471.72;;;3.29;68.82
63204;BME280;49297;43.210;27.914;2023-01-25T13:19:58;102467.13;;;3.37;68.71
63204;BME280;49297;43.210;27.914;2023-01-25T13:25:28;102471.94;;;3.51;68.49
63204;BME280;49297;43.210;27.914;2023-01-25T13:30:57;102472.50;;;3.59;67.56
63204;BME280;49297;43.210;27.914;2023-01-25T13:33:33;102464.56;;;3.62;67.48
63204;BME280;49297;43.210;27.914;2023-01-25T13:36:43;102473.31;;;3.61;67.37
63204;BME280;49297;43.210;27.914;2023-01-25T13:42:01;102466.44;;;3.59;67.16
63204;BME280;49297;43.210;27.914;2023-01-25T13:44:30;102465.59;;;3.58;67.11
63204;BME280;49297;43.210;27.914;2023-01-25T13:47:00;102461.16;;;3.60;67.73
63204;BME280;49297;43.210;27.914;2023-01-25T13:49:51;102457.78;;;3.57;67.48
63204;BME280;49297;43.210;27.914;2023-01-25T13:52:21;102455.19;;;3.55;67.94
63204;BME280;49297;43.210;27.914;2023-01-25T13:54:48;102465.63;;;3.57;67.22
63204;BME280;49297;43.210;27.914;2023-01-25T13:57:22;102452.63;;;3.54;67.74
63204;BME280;49297;43.210;27.914;2023-01-25T13:59:57;102452.63;;;3.54;68.01
63204;BME280;49297;43.210;27.914;2023-01-25T14:02:24;102457.81;;;3.55;68.06
63204;BME280;49297;43.210;27.914;2023-01-25T14:04:51;102462.97;;;3.58;68.20
63204;BME280;49297;43.210;27.914;2023-01-25T14:07:19;102457.66;;;3.60;68.57
63204;BME280;49297;43.210;27.914;2023-01-25T14:09:47;102462.00;;;3.61;68.29
63204;BME280;49297;43.210;27.914;2023-01-25T14:12:30;102462.03;;;3.59;68.33
63204;BME280;49297;43.210;27.914;2023-01-25T14:15:31;102453.25;;;3.62;68.71
63204;BME280;49297;43.210;27.914;2023-01-25T14:18:15;102459.47;;;3.58;68.42